Time;durP1;ratioP1;P1;durP2;ratioP2;P2;SDS_P1;SDS_P2;PMS_P1;PMS_P2;Temp;Humidity;BMP_temperature;BMP_pressure;BME280_temperature;BME280_humidity;BME280_pressure;Samples;Min_cycle;Max_cycle;Signal;HPM_P1;HPM_P2
2023/06/24 00:00:12;152265.00;0.51;263.71;0.00;0.00;0.62;;;;;20.30;1.00;;;;;;2268046;61;2009;-86
2023/06/24 00:02:45;189320.00;0.63;327.54;42589.00;0.14;74.37;;;;;20.50;1.00;;;;;;2268337;61;1181;-86
2023/06/24 00:05:12;229037.00;0.76;395.89;0.00;0.00;0.62;;;;;20.70;1.00;;;;;;2268138;61;1478;-88
2023/06/24 00:07:44;323741.00;1.08;558.73;0.00;0.00;0.62;;;;;20.60;1.00;;;;;;2268110;61;1569;-87
2023/06/24 00:10:11;49673.00;0.17;86.62;0.00;0.00;0.62;;;;;20.40;1.00;;;;;;2268238;61;1560;-84
2023/06/24 00:12:41;143514.00;0.48;248.63;0.00;0.00;0.62;;;;;20.40;1.00;;;;;;2268195;61;2181;-87
2023/06/24 00:15:10;199866.00;0.67;345.69;0.00;0.00;0.62;;;;;20.30;1.00;;;;;;2268245;61;987;-86
2023/06/24 00:17:37;188548.00;0.63;326.21;0.00;0.00;0.62;;;;;20.20;1.00;;;;;;2268175;61;1388;-86
2023/06/24 00:20:10;219000.00;0.73;378.62;0.00;0.00;0.62;;;;;20.20;1.00;;;;;;2267978;61;1928;-86
2023/06/24 00:22:38;78475.00;0.26;136.40;0.00;0.00;0.62;;;;;20.20;1.00;;;;;;2268185;61;1587;-85
2023/06/24 00:25:07;226311.00;0.75;391.20;0.00;0.00;0.62;;;;;20.20;1.00;;;;;;2268151;61;1566;-87
2023/06/24 00:27:34;111892.00;0.37;194.09;0.00;0.00;0.62;;;;;20.30;1.00;;;;;;2268067;61;1485;-85
2023/06/24 00:30:02;181171.00;0.60;313.51;0.00;0.00;0.62;;;;;20.40;1.00;;;;;;2268111;61;1100;-85
2023/06/24 00:32:29;192131.00;0.64;332.38;0.00;0.00;0.62;;;;;20.60;1.00;;;;;;2268107;61;1573;-87
2023/06/24 00:35:01;749568.00;2.50;1293.31;0.00;0.00;0.62;;;;;20.40;1.00;;;;;;2267993;61;1821;-87
2023/06/24 00:37:31;201643.00;0.67;348.75;0.00;0.00;0.62;;;;;20.00;1.00;;;;;;2268034;61;1592;-88
2023/06/24 00:40:00;419017.00;1.40;722.50;29083.00;0.10;51.00;;;;;20.20;1.00;;;;;;2268097;61;1935;-85
2023/06/24 00:42:28;222259.00;0.74;384.23;0.00;0.00;0.62;;;;;19.90;1.00;;;;;;2268156;61;1485;-86
2023/06/24 00:44:56;865270.00;2.88;1495.20;89276.00;0.30;155.06;;;;;19.80;1.00;;;;;;2268082;61;1602;-87
2023/06/24 00:47:30;1567442.00;5.22;2770.68;128684.00;0.43;223.06;;;;;19.60;1.00;;;;;;2272450;40;3640;-88
2023/06/24 00:49:58;2422506.00;8.08;4531.04;125524.00;0.42;217.61;;;;;19.60;1.00;;;;;;2268031;61;1593;-87
2023/06/24 00:52:26;1553603.00;5.18;2744.39;148179.00;0.49;256.67;;;;;19.70;1.00;;;;;;2268039;61;1764;-87
2023/06/24 00:54:55;780738.00;2.60;1347.55;91607.00;0.31;159.08;;;;;19.70;1.00;;;;;;2268064;61;1638;-86
2023/06/24 00:57:25;1695204.00;5.65;3016.11;173350.00;0.58;300.04;;;;;19.70;1.00;;;;;;2267989;61;1781;-87
2023/06/24 00:59:53;1463850.00;4.88;2575.28;115591.00;0.39;200.48;;;;;19.80;1.00;;;;;;2268011;61;1910;-87
2023/06/24 01:02:27;1345484.00;4.48;2355.59;117049.00;0.39;202.99;;;;;19.60;1.00;;;;;;2267988;61;1449;-87
2023/06/24 01:04:55;971037.00;3.24;1681.24;31097.00;0.10;54.48;;;;;19.50;1.00;;;;;;2267842;61;1530;-86
2023/06/24 01:07:23;186393.00;0.62;322.50;0.00;0.00;0.62;;;;;19.50;1.00;;;;;;2267887;61;1602;-87
2023/06/24 01:09:53;149263.00;0.50;258.54;0.00;0.00;0.62;;;;;19.50;1.00;;;;;;2268074;61;1660;-88
2023/06/24 01:12:22;103314.00;0.34;179.29;0.00;0.00;0.62;;;;;19.50;1.00;;;;;;2268063;61;1137;-87
2023/06/24 01:14:49;118721.00;0.40;205.88;0.00;0.00;0.62;;;;;19.70;1.00;;;;;;2268147;61;1029;-89
2023/06/24 01:17:24;137459.00;0.46;238.19;0.00;0.00;0.62;;;;;19.50;1.00;;;;;;2267959;61;1409;-87
2023/06/24 01:20:11;205740.00;0.69;355.80;0.00;0.00;0.62;;;;;19.40;1.00;;;;;;2267772;61;2003;-87
2023/06/24 01:23:25;120611.00;0.40;209.14;0.00;0.00;0.62;;;;;19.20;1.00;;;;;;2268016;61;1509;-88
2023/06/24 01:26:30;164745152.00;549.15;181305408.00;0.00;0.00;0.62;;;;;19.30;1.00;;;;;;2268045;61;937;-87
2023/06/24 01:29:32;170860.00;0.57;295.75;0.00;0.00;0.62;;;;;19.30;1.00;;;;;;2267800;61;1585;-86
2023/06/24 01:32:10;394638.00;1.32;680.59;92800.00;0.31;161.14;;;;;19.40;1.00;;;;;;2268020;61;1016;-87
2023/06/24 01:34:45;46181.00;0.15;80.58;0.00;0.00;0.62;;;;;19.50;1.00;;;;;;2267934;61;1615;-88
2023/06/24 01:37:20;79279.00;0.26;137.79;0.00;0.00;0.62;;;;;19.10;1.00;;;;;;2267857;61;1538;-87
2023/06/24 01:39:57;314536.00;1.05;542.91;0.00;0.00;0.62;;;;;19.00;1.00;;;;;;2267930;61;1928;-86
2023/06/24 01:42:25;108581.00;0.36;188.38;0.00;0.00;0.62;;;;;19.00;1.00;;;;;;2267946;61;1801;-87
2023/06/24 01:44:53;135854.00;0.45;235.42;0.00;0.00;0.62;;;;;18.90;1.00;;;;;;2267903;61;1515;-87
2023/06/24 01:47:36;97628.00;0.33;169.48;0.00;0.00;0.62;;;;;19.30;1.00;;;;;;2267833;61;1768;-88
2023/06/24 01:50:05;301598.00;1.01;520.67;88045.00;0.29;152.93;;;;;19.40;1.00;;;;;;2267964;61;1612;-87
2023/06/24 01:52:35;351823.00;1.17;606.99;0.00;0.00;0.62;;;;;19.40;1.00;;;;;;2267664;61;1566;-87
2023/06/24 01:55:05;267461.00;0.89;461.98;0.00;0.00;0.62;;;;;18.90;1.00;;;;;;2267801;61;1525;-88
2023/06/24 01:57:35;246435.00;0.82;425.82;0.00;0.00;0.62;;;;;18.90;1.00;;;;;;2267784;61;1417;-87
2023/06/24 02:00:06;204449.00;0.68;353.58;0.00;0.00;0.62;;;;;19.10;1.00;;;;;;2267817;61;2001;-88
2023/06/24 02:02:36;139332.00;0.46;241.42;0.00;0.00;0.62;;;;;19.30;1.00;;;;;;2267890;61;1529;-88
2023/06/24 02:05:07;255487.00;0.85;441.39;0.00;0.00;0.62;;;;;19.20;1.00;;;;;;2267973;61;1052;-86
2023/06/24 02:07:37;204883.00;0.68;354.33;0.00;0.00;0.62;;;;;19.20;1.00;;;;;;2267847;61;1407;-87
2023/06/24 02:10:05;256075.00;0.85;442.40;0.00;0.00;0.62;;;;;18.80;1.00;;;;;;2267854;61;1053;-88
2023/06/24 02:12:34;238479.00;0.79;412.13;0.00;0.00;0.62;;;;;18.80;1.00;;;;;;2267841;61;2225;-84
2023/06/24 02:15:04;107647.00;0.36;186.77;0.00;0.00;0.62;;;;;18.60;1.00;;;;;;2267892;61;919;-87
2023/06/24 02:17:32;242036.00;0.81;418.25;0.00;0.00;0.62;;;;;18.90;1.00;;;;;;2267831;61;1356;-86
2023/06/24 02:20:01;245897.00;0.82;424.89;0.00;0.00;0.62;;;;;18.70;1.00;;;;;;2267730;61;1928;-85
2023/06/24 02:22:29;72938.00;0.24;126.84;0.00;0.00;0.62;;;;;18.60;1.00;;;;;;2267842;61;883;-87
2023/06/24 02:24:57;301882.00;1.01;521.16;0.00;0.00;0.62;;;;;18.50;1.00;;;;;;2267672;61;1609;-86
2023/06/24 02:27:27;118535120.00;395.12;67465376.00;0.00;0.00;0.62;;;;;18.50;1.00;;;;;;2267659;61;1476;-87
2023/06/24 02:29:57;190265.00;0.63;329.16;0.00;0.00;0.62;;;;;18.60;1.00;;;;;;2267676;61;1612;-87
2023/06/24 02:32:24;221843.00;0.74;383.51;0.00;0.00;0.62;;;;;18.60;1.00;;;;;;2267840;61;917;-86
2023/06/24 02:34:51;206069.00;0.69;356.37;0.00;0.00;0.62;;;;;18.60;1.00;;;;;;2267587;61;1061;-87
2023/06/24 02:37:20;153311.00;0.51;265.51;0.00;0.00;0.62;;;;;18.50;1.00;;;;;;2267738;61;1648;-86
2023/06/24 02:39:47;298481.00;0.99;515.31;0.00;0.00;0.62;;;;;18.30;1.00;;;;;;2267643;61;2014;-87
2023/06/24 02:42:14;219967.00;0.73;380.29;0.00;0.00;0.62;;;;;18.30;1.00;;;;;;2268380;61;962;-86
2023/06/24 02:44:42;144194.00;0.48;249.80;0.00;0.00;0.62;;;;;18.30;1.00;;;;;;2268492;61;1099;-88
2023/06/24 02:47:14;73078.00;0.24;127.08;0.00;0.00;0.62;;;;;18.30;1.00;;;;;;2268564;61;1282;-87
2023/06/24 02:49:46;343687.00;1.15;593.01;0.00;0.00;0.62;;;;;18.20;1.00;;;;;;2268405;61;1755;-85
2023/06/24 02:52:14;256130.00;0.85;442.49;0.00;0.00;0.62;;;;;18.20;1.00;;;;;;2268445;61;1567;-88
2023/06/24 02:54:48;160283.00;0.53;277.53;36192.00;0.12;63.30;;;;;18.40;1.00;;;;;;2268444;61;1585;-86
2023/06/24 02:57:15;235154.00;0.78;406.42;0.00;0.00;0.62;;;;;18.40;1.00;;;;;;2268386;61;1562;-86
2023/06/24 02:59:42;191865.00;0.64;331.92;0.00;0.00;0.62;;;;;18.10;1.00;;;;;;2268338;61;1918;-85
2023/06/24 03:02:10;204052.00;0.68;352.90;0.00;0.00;0.62;;;;;18.30;1.00;;;;;;2268570;61;1000;-87
2023/06/24 03:04:38;80684.00;0.27;140.22;0.00;0.00;0.62;;;;;18.30;1.00;;;;;;2268526;61;1612;-88
2023/06/24 03:07:08;169046.00;0.56;292.62;0.00;0.00;0.62;;;;;17.70;1.00;;;;;;2268606;61;1790;-88
2023/06/24 03:09:35;67136.00;0.22;116.81;0.00;0.00;0.62;;;;;17.20;2.40;;;;;;2268592;61;1512;-87
2023/06/24 03:12:07;221236.00;0.74;382.47;0.00;0.00;0.62;;;;;16.90;3.90;;;;;;2268700;61;934;-87
2023/06/24 03:14:34;241501.00;0.81;417.33;37591.00;0.13;65.72;;;;;16.70;4.70;;;;;;2268514;61;1588;-86
2023/06/24 03:17:01;273947.00;0.91;473.13;0.00;0.00;0.62;;;;;16.50;5.80;;;;;;2268564;61;1372;-88
2023/06/24 03:19:30;481472.00;1.60;829.93;51674.00;0.17;90.08;;;;;16.50;6.80;;;;;;2287808;40;3608;-88
2023/06/24 03:22:00;466798.00;1.56;804.68;0.00;0.00;0.62;;;;;16.70;6.00;;;;;;2272326;61;1649;-87
2023/06/24 03:24:27;155953.00;0.52;270.07;0.00;0.00;0.62;;;;;16.80;5.40;;;;;;2272625;61;1783;-86
2023/06/24 03:26:56;260291.00;0.87;449.65;0.00;0.00;0.62;;;;;16.80;6.20;;;;;;2272577;61;1392;-87
2023/06/24 03:29:25;113864.00;0.38;197.50;0.00;0.00;0.62;;;;;16.80;5.50;;;;;;2272570;61;1617;-87
2023/06/24 03:31:52;332146.00;1.11;573.17;33459.00;0.11;58.57;;;;;16.70;6.00;;;;;;2272616;61;1496;-87
2023/06/24 03:34:19;80348.00;0.27;139.64;0.00;0.00;0.62;;;;;16.60;6.30;;;;;;2272553;61;1296;-87
2023/06/24 03:36:47;242273.00;0.81;418.66;14706.00;0.05;26.10;;;;;16.60;6.80;;;;;;2272554;61;1601;-87
2023/06/24 03:39:14;1184394.00;3.95;2062.03;152339.00;0.51;263.84;;;;;16.60;6.60;;;;;;2272595;61;1923;-89
2023/06/24 03:41:41;960364.00;3.20;1662.40;69099.00;0.23;120.20;;;;;16.60;6.00;;;;;;2272610;61;1000;-87
2023/06/24 03:44:08;1159673.00;3.87;2017.48;64102.00;0.21;111.57;;;;;16.80;6.20;;;;;;2272311;61;981;-86
2023/06/24 03:46:36;1327750.00;4.43;2322.98;67684.00;0.23;117.76;;;;;17.10;4.50;;;;;;2272528;61;1367;-87
2023/06/24 03:49:03;1626207.00;5.42;2882.93;77085.00;0.26;134.00;;;;;17.00;4.60;;;;;;2272554;61;1589;-87
2023/06/24 03:51:30;2033039.00;6.78;3692.39;232337.00;0.77;401.57;;;;;17.10;4.40;;;;;;2272477;61;1641;-86
2023/06/24 03:53:58;638568.00;2.13;1100.86;104630.00;0.35;181.56;;;;;16.90;5.50;;;;;;2272553;61;981;-88
2023/06/24 03:56:25;350412.00;1.17;604.57;89016.00;0.30;154.61;;;;;16.70;6.40;;;;;;2272610;61;1285;-86
2023/06/24 03:58:52;454536.00;1.52;783.59;91531.00;0.31;158.95;;;;;16.80;5.80;;;;;;2272410;61;1517;-86
2023/06/24 04:01:19;219892.00;0.73;380.16;98546.00;0.33;171.06;;;;;16.80;5.90;;;;;;2272400;61;1997;-86
2023/06/24 04:03:48;222994.00;0.74;385.50;92426.00;0.31;160.50;;;;;17.00;5.60;;;;;;2272496;61;1117;-87
2023/06/24 04:06:15;115800.00;0.39;200.84;0.00;0.00;0.62;;;;;17.00;5.40;;;;;;2272441;61;1613;-86
2023/06/24 04:08:43;83657.00;0.28;145.35;0.00;0.00;0.62;;;;;17.20;5.20;;;;;;2272490;61;1125;-89
2023/06/24 04:11:11;48645.00;0.16;84.84;0.00;0.00;0.62;;;;;17.40;4.20;;;;;;2272528;61;1158;-87
2023/06/24 04:13:39;31468.00;0.10;55.12;0.00;0.00;0.62;;;;;17.30;4.20;;;;;;2272482;61;1558;-89
2023/06/24 04:16:06;261083.00;0.87;451.01;0.00;0.00;0.62;;;;;17.50;4.30;;;;;;2272540;61;1020;-86
2023/06/24 04:18:33;212851.00;0.71;368.04;33396.00;0.11;58.46;;;;;17.60;4.40;;;;;;2272391;61;1249;-86
2023/06/24 04:21:01;75477.00;0.25;131.22;0.00;0.00;0.62;;;;;18.00;2.80;;;;;;2272351;61;1986;-87
2023/06/24 04:23:28;125642.00;0.42;217.81;22539.00;0.08;39.67;;;;;18.30;1.30;;;;;;2272500;61;1046;-86
2023/06/24 04:25:55;118849.00;0.40;206.10;0.00;0.00;0.62;;;;;18.40;1.10;;;;;;2272460;61;1071;-87
2023/06/24 04:28:22;387753.00;1.29;668.75;48724.00;0.16;84.98;;;;;18.40;1.40;;;;;;2272365;61;1448;-86
2023/06/24 04:30:49;238202.00;0.79;411.66;0.00;0.00;0.62;;;;;18.40;1.10;;;;;;2272361;61;1568;-88
2023/06/24 04:33:16;261070.00;0.87;450.99;82117.00;0.27;142.69;;;;;18.70;1.20;;;;;;2272394;61;1653;-88
2023/06/24 04:35:44;333247.00;1.11;575.07;5689.00;0.02;10.48;;;;;18.70;1.00;;;;;;2272019;61;1596;-86
2023/06/24 04:38:17;152860.00;0.51;264.74;0.00;0.00;0.62;;;;;18.90;1.00;;;;;;2272300;61;1573;-85
2023/06/24 04:40:44;132658.00;0.44;229.91;0.00;0.00;0.62;;;;;19.30;1.00;;;;;;2272387;61;2006;-88
2023/06/24 04:43:11;1358246.00;4.53;2379.11;84897.00;0.28;147.50;;;;;19.40;1.00;;;;;;2272467;61;938;-87
2023/06/24 04:45:39;551527.00;1.84;950.59;104066.00;0.35;180.59;;;;;19.50;1.00;;;;;;2272358;61;1605;-85
2023/06/24 04:48:06;452349.00;1.51;779.82;93929.00;0.31;163.09;;;;;19.60;1.00;;;;;;2272350;61;1420;-85
2023/06/24 04:50:33;319208.00;1.06;550.94;84788.00;0.28;147.31;;;;;20.10;1.00;;;;;;2272393;61;1210;-86
2023/06/24 04:53:01;188363.00;0.63;325.89;78285.00;0.26;136.07;;;;;20.30;1.00;;;;;;2272280;61;2276;-86
2023/06/24 04:55:32;807418.00;2.69;1394.06;341038.00;1.14;588.46;;;;;20.40;1.00;;;;;;2272293;61;1160;-87
2023/06/24 04:57:59;482182.00;1.61;831.15;83783.00;0.28;145.57;;;;;20.40;1.00;;;;;;2272133;61;1715;-87
2023/06/24 05:00:26;312176.00;1.04;538.85;81781.00;0.27;142.11;;;;;20.40;1.00;;;;;;2272198;61;1930;-87
2023/06/24 05:02:53;192196.00;0.64;332.49;86968.00;0.29;151.07;;;;;20.60;1.00;;;;;;2272153;61;1096;-88
2023/06/24 05:05:21;510995.00;1.70;880.76;160581.00;0.54;278.04;;;;;20.70;1.00;;;;;;2272246;61;1139;-87
2023/06/24 05:07:48;239900.00;0.80;414.58;83589.00;0.28;145.24;;;;;20.60;1.00;;;;;;2272194;61;1728;-91
2023/06/24 05:10:15;208251.00;0.69;360.13;87393.00;0.29;151.81;;;;;20.60;1.00;;;;;;2272246;61;1555;-90
2023/06/24 05:12:43;240229.00;0.80;415.15;87775.00;0.29;152.47;;;;;20.90;1.00;;;;;;2272378;61;1116;-88
2023/06/24 05:15:11;41774.00;0.14;72.96;0.00;0.00;0.62;;;;;20.70;1.00;;;;;;2272326;61;1022;-89
2023/06/24 05:17:38;28104.00;0.09;49.30;0.00;0.00;0.62;;;;;21.00;1.00;;;;;;2272134;61;1439;-87
2023/06/24 05:20:06;0.00;0.00;0.62;0.00;0.00;0.62;;;;;21.00;1.00;;;;;;2272068;61;2005;-88
2023/06/24 05:22:33;319626.00;1.07;551.66;63901.00;0.21;111.22;;;;;20.70;1.00;;;;;;2272156;61;970;-87
2023/06/24 05:25:00;83429.00;0.28;144.96;0.00;0.00;0.62;;;;;20.80;1.00;;;;;;2272180;61;942;-86
2023/06/24 05:27:27;325469.00;1.08;561.70;65684.00;0.22;114.30;;;;;20.90;1.00;;;;;;2272126;61;1318;-87
2023/06/24 05:29:56;65035.00;0.22;113.18;0.00;0.00;0.62;;;;;21.00;1.00;;;;;;2272176;61;1570;-86
2023/06/24 05:34:50;268496.00;0.89;463.76;0.00;0.00;0.62;;;;;20.60;1.00;;;;;;2266197;61;1292;-87
2023/06/24 05:37:17;194579.00;0.65;336.59;0.00;0.00;0.62;;;;;21.00;1.00;;;;;;2264070;61;1729;-88
2023/06/24 05:39:44;51177.00;0.17;89.22;0.00;0.00;0.62;;;;;21.20;1.00;;;;;;2264074;61;2004;-87
2023/06/24 05:42:11;114939.00;0.38;199.35;0.00;0.00;0.62;;;;;21.90;1.00;;;;;;2264160;61;1014;-85
2023/06/24 05:44:38;163549.00;0.55;283.15;54501.00;0.18;94.97;;;;;23.20;1.00;;;;;;2264166;61;1148;-87
2023/06/24 05:47:07;68951.00;0.23;119.95;0.00;0.00;0.62;;;;;24.80;1.00;;;;;;2264028;61;1606;-85
2023/06/24 05:49:33;159855.00;0.53;276.79;20550.00;0.07;36.22;;;;;26.00;1.00;;;;;;2264176;61;1079;-89
2023/06/24 05:52:00;1505898.00;5.02;2654.22;97509.00;0.33;169.27;;;;;27.40;1.00;;;;;;2264180;61;1261;-88
2023/06/24 05:54:27;1053434.00;3.51;1827.34;55569.00;0.19;96.82;;;;;28.50;1.00;;;;;;2264230;61;886;-89
2023/06/24 05:56:54;258184.00;0.86;446.03;73020.00;0.24;126.98;;;;;29.10;1.00;;;;;;2264036;61;1628;-90
2023/06/24 05:59:21;208199.00;0.69;360.04;82117.00;0.27;142.69;;;;;29.90;1.00;;;;;;2264228;61;1173;-89
2023/06/24 06:01:48;0.00;0.00;0.62;0.00;0.00;0.62;;;;;30.30;1.00;;;;;;2264022;61;2014;-87
2023/06/24 06:04:16;0.00;0.00;0.62;0.00;0.00;0.62;;;;;30.80;1.00;;;;;;2264162;61;1022;-87
2023/06/24 06:06:43;458599.00;1.53;790.57;13128.00;0.04;23.37;;;;;31.00;1.00;;;;;;2264110;61;1269;-87
2023/06/24 06:09:10;431415.00;1.44;743.82;8818.00;0.03;15.90;;;;;31.50;1.00;;;;;;2264147;61;1038;-87
2023/06/24 06:11:37;49977.00;0.17;87.15;0.00;0.00;0.62;;;;;31.90;1.00;;;;;;2264140;61;1156;-89
2023/06/24 06:14:04;58858.00;0.20;102.50;0.00;0.00;0.62;;;;;32.70;1.00;;;;;;2264103;61;1177;-88
2023/06/24 06:16:31;13133.00;0.04;23.38;0.00;0.00;0.62;;;;;32.80;1.00;;;;;;2264026;61;1379;-85
2023/06/24 06:18:58;32545.00;0.11;56.99;0.00;0.00;0.62;;;;;32.90;1.00;;;;;;2264014;61;1739;-84
2023/06/24 06:21:27;201867.00;0.67;349.14;0.00;0.00;0.62;;;;;33.10;1.00;;;;;;2264052;61;2290;-88
2023/06/24 06:23:54;1613976.00;5.38;2859.48;187131.00;0.62;323.77;;;;;34.10;1.00;;;;;;2264184;61;1044;-88
2023/06/24 06:26:20;1196615.00;3.99;2084.10;36993.00;0.12;64.69;;;;;34.50;1.00;;;;;;2264035;61;1480;-87
2023/06/24 06:28:48;413133.00;1.38;712.38;35285.00;0.12;61.73;;;;;34.10;1.00;;;;;;2264095;61;940;-87
2023/06/24 06:31:15;117604296.00;392.01;65887060.00;71563.00;0.24;124.46;;;;;34.40;1.00;;;;;;2264064;61;1206;-88
2023/06/24 06:33:42;303099.00;1.01;523.25;35654.00;0.12;62.37;;;;;35.40;1.00;;;;;;2263958;61;1609;-88
2023/06/24 06:36:09;55123.00;0.18;96.05;0.00;0.00;0.62;;;;;35.40;1.00;;;;;;2264046;61;938;-86
2023/06/24 06:38:37;84528.00;0.28;146.86;0.00;0.00;0.62;;;;;34.50;1.00;;;;;;2264018;61;1024;-86
2023/06/24 06:41:04;235938.00;0.79;407.76;39648.00;0.13;69.28;;;;;35.40;1.00;;;;;;2263927;61;1989;-88
2023/06/24 06:43:31;0.00;0.00;0.62;0.00;0.00;0.62;;;;;35.80;1.00;;;;;;2263978;61;1223;-87
2023/06/24 06:45:58;143098.00;0.48;247.91;0.00;0.00;0.62;;;;;36.70;1.00;;;;;;2263911;61;1717;-88
2023/06/24 06:48:25;81027.00;0.27;140.81;0.00;0.00;0.62;;;;;35.90;1.00;;;;;;2263882;61;1307;-85
2023/06/24 06:50:53;48006.00;0.16;83.74;0.00;0.00;0.62;;;;;35.80;1.00;;;;;;2263781;61;989;-86
2023/06/24 06:53:20;0.00;0.00;0.62;0.00;0.00;0.62;;;;;36.40;1.00;;;;;;2263837;61;1029;-86
2023/06/24 06:55:48;0.00;0.00;0.62;0.00;0.00;0.62;;;;;37.10;1.00;;;;;;2263977;61;1051;-86
2023/06/24 06:58:15;92700.00;0.31;160.97;3780.00;0.01;7.17;;;;;37.50;1.00;;;;;;2263889;61;1407;-85
2023/06/24 07:00:42;88016.00;0.29;152.88;0.00;0.00;0.62;;;;;37.80;1.00;;;;;;2264006;61;1996;-85
2023/06/24 07:03:09;127210.00;0.42;220.52;0.00;0.00;0.62;;;;;37.90;1.00;;;;;;2263911;61;1612;-86
2023/06/24 07:05:36;73209.00;0.24;127.31;0.00;0.00;0.62;;;;;38.00;1.00;;;;;;2263900;61;1535;-87
2023/06/24 07:08:06;930354.00;3.10;1609.50;160260.00;0.53;277.49;;;;;36.80;1.00;;;;;;2263935;61;1383;-88
2023/06/24 07:10:32;1343822.00;4.48;2352.53;72548.00;0.24;126.16;;;;;37.30;1.00;;;;;;2264017;61;906;-88
2023/06/24 07:13:01;1188772.00;3.96;2069.93;109363.00;0.36;189.73;;;;;38.10;1.00;;;;;;2263940;61;1118;-87
2023/06/24 07:15:28;1578893.00;5.26;2792.47;91462.00;0.30;158.83;;;;;37.80;1.00;;;;;;2264037;61;1165;-89
2023/06/24 07:17:55;927611.00;3.09;1604.67;81447.00;0.27;141.54;;;;;37.30;1.00;;;;;;2263836;61;1395;-89
2023/06/24 07:22:54;1603847.00;5.35;2840.09;86239.00;0.29;149.81;;;;;36.90;1.00;;;;;;2269742;61;1409;-89
2023/06/24 07:25:21;1026698.00;3.42;1779.81;148431.00;0.49;257.10;;;;;37.30;1.00;;;;;;2266872;61;915;-86
2023/06/24 07:27:48;848677.00;2.83;1466.15;81153.00;0.27;141.03;;;;;36.80;1.00;;;;;;2271668;55;3840;-88
2023/06/24 07:35:16;1030467.00;3.43;1786.51;105875.00;0.35;183.71;;;;;37.80;1.00;;;;;;2279167;40;3496;-90
2023/06/24 07:37:43;691051.00;2.30;1191.72;19572.00;0.07;34.53;;;;;37.70;1.00;;;;;;2324697;40;3828;-88
2023/06/24 07:40:10;511578.00;1.71;881.76;95804.00;0.32;166.33;;;;;38.00;1.00;;;;;;2274624;55;3742;-90
2023/06/24 07:42:37;211504.00;0.71;365.72;0.00;0.00;0.62;;;;;37.80;1.00;;;;;;2318359;39;3487;-88
2023/06/24 07:45:05;403235.00;1.34;695.37;0.00;0.00;0.62;;;;;37.60;1.00;;;;;;2272564;61;1551;-91
2023/06/24 07:47:33;650180.00;2.17;1120.95;1921.00;0.01;3.95;;;;;36.90;1.00;;;;;;2294216;55;3833;-88
2023/06/24 07:50:00;510244.00;1.70;879.46;28190.00;0.09;49.45;;;;;38.10;1.00;;;;;;2272454;61;1670;-88
2023/06/24 07:52:29;494278.00;1.65;851.97;7018.00;0.02;12.78;;;;;37.70;1.00;;;;;;2272400;61;1541;-90
2023/06/24 07:54:56;925098.00;3.08;1600.24;94761.00;0.32;164.53;;;;;38.00;1.00;;;;;;2272347;61;1710;-89
2023/06/24 07:57:23;555449.00;1.85;957.35;0.00;0.00;0.62;;;;;37.90;1.00;;;;;;2272453;61;1392;-86
2023/06/24 07:59:50;697695.00;2.33;1203.24;104755.00;0.35;181.78;;;;;37.40;1.00;;;;;;2272531;61;1596;-88
2023/06/24 08:04:47;775243.00;2.58;1337.98;162335.00;0.54;281.06;;;;;37.00;1.00;;;;;;2302716;40;3497;-88
2023/06/24 08:07:15;669108.00;2.23;1153.71;89090.00;0.30;154.74;;;;;37.30;1.00;;;;;;2272227;61;1431;-87
2023/06/24 08:09:43;451058.00;1.50;777.60;72298.00;0.24;125.73;;;;;37.90;1.00;;;;;;2272415;61;1793;-87
2023/06/24 08:12:11;481431.00;1.60;829.86;86000.00;0.29;149.40;;;;;37.20;1.00;;;;;;2273638;55;3768;-86
2023/06/24 08:19:36;579321.00;1.93;998.53;76083.00;0.25;132.27;;;;;38.80;1.00;;;;;;2280638;40;3518;-86
2023/06/24 08:22:05;482297.00;1.61;831.35;17195.00;0.06;30.41;;;;;38.60;1.00;;;;;;2290740;40;3456;-88
2023/06/24 08:24:32;335793.00;1.12;579.44;0.00;0.00;0.62;;;;;37.80;1.00;;;;;;2272332;61;920;-89
2023/06/24 08:27:01;554432.00;1.85;955.60;56664.00;0.19;98.71;;;;;37.70;1.00;;;;;;2277561;40;3606;-88
2023/06/24 08:35:19;0.00;0.00;0.62;0.00;0.00;0.62;;;;;37.50;1.00;;;;;;2286452;40;3766;-89
2023/06/24 08:37:49;113753.00;0.38;197.31;0.00;0.00;0.62;;;;;37.30;1.00;;;;;;2288612;40;3572;-90
2023/06/24 08:40:18;67908.00;0.23;118.15;0.00;0.00;0.62;;;;;37.50;1.00;;;;;;2278823;40;3605;-89
2023/06/24 08:42:46;167246.00;0.56;289.52;0.00;0.00;0.62;;;;;37.60;1.00;;;;;;2268340;61;1926;-88
2023/06/24 08:45:13;0.00;0.00;0.62;0.00;0.00;0.62;;;;;36.50;1.00;;;;;;2268223;61;914;-87
2023/06/24 08:50:13;214106.00;0.71;370.20;0.00;0.00;0.62;;;;;36.50;1.00;;;;;;2277011;55;3648;-87
2023/06/24 08:52:44;356969.00;1.19;615.84;76922.00;0.26;133.72;;;;;36.70;1.00;;;;;;2358071;40;3682;-87
2023/06/24 08:55:17;313147.00;1.04;540.52;69513.00;0.23;120.92;;;;;35.60;1.00;;;;;;2272367;61;1638;-89
2023/06/24 09:02:53;1278476.00;4.26;2232.77;102475.00;0.34;177.84;;;;;34.50;1.00;;;;;;2288776;40;3602;-88
2023/06/24 09:05:20;630205.00;2.10;1086.40;75475.00;0.25;131.22;;;;;34.80;1.00;;;;;;2268189;61;1010;-87
2023/06/24 09:07:47;946007.00;3.15;1637.07;249224.00;0.83;430.62;;;;;35.60;1.00;;;;;;2268280;61;1407;-87
2023/06/24 09:10:31;117458416.00;391.53;65641956.00;73450.00;0.24;127.72;;;;;35.60;1.00;;;;;;2268382;61;1494;-86
2023/06/24 09:12:58;134455760.00;448.19;98499824.00;22499.00;0.07;39.60;;;;;35.90;1.00;;;;;;2268463;61;1006;-88
2023/06/24 09:15:25;663424.00;2.21;1143.87;34554.00;0.12;60.46;;;;;35.80;1.00;;;;;;2268405;61;1662;-87
2023/06/24 09:17:54;240064.00;0.80;414.86;0.00;0.00;0.62;;;;;35.50;1.00;;;;;;2268254;61;1431;-89
2023/06/24 09:20:22;735920.00;2.45;1269.59;26876.00;0.09;47.18;;;;;35.00;1.00;;;;;;2268305;61;1149;-88
2023/06/24 09:22:49;339040.00;1.13;585.02;28822.00;0.10;50.54;;;;;35.00;1.00;;;;;;2314861;55;3587;-87
2023/06/24 09:25:19;601132.00;2.00;1036.17;13328.00;0.04;23.71;;;;;34.80;1.00;;;;;;2268077;61;1632;-89
2023/06/24 09:30:20;1121916.00;3.74;1949.66;57099.00;0.19;99.46;;;;;33.90;1.00;;;;;;2269542;61;1406;-87
2023/06/24 09:35:22;443357.00;1.48;764.36;26389.00;0.09;46.33;;;;;33.30;1.00;;;;;;2270460;61;1310;-87
2023/06/24 09:37:53;441572.00;1.47;761.29;0.00;0.00;0.62;;;;;33.10;1.00;;;;;;2268169;61;2208;-89
2023/06/24 09:45:33;95067.00;0.32;165.06;0.00;0.00;0.62;;;;;31.50;1.00;;;;;;1501203;40;3606;-89
2023/06/24 09:50:44;453873.00;1.51;782.44;0.00;0.00;0.62;;;;;30.70;1.00;;;;;;2340871;55;3602;-89
2023/06/24 10:06:14;494086.00;1.65;851.64;0.00;0.00;0.62;;;;;31.50;1.00;;;;;;2270554;61;1007;-90
2023/06/24 10:11:12;225207.00;0.75;389.30;0.00;0.00;0.62;;;;;30.40;1.00;;;;;;2270249;61;1268;-90
2023/06/24 10:21:12;604504.00;2.02;1042.00;0.00;0.00;0.62;;;;;31.50;1.00;;;;;;2327877;40;3716;-89
2023/06/24 10:29:10;494300.00;1.65;852.01;0.00;0.00;0.62;;;;;31.80;1.00;;;;;;2320574;55;3594;-86
2023/06/24 10:31:59;233264.00;0.78;403.16;0.00;0.00;0.62;;;;;31.60;1.00;;;;;;2330358;40;3926;-88
2023/06/24 10:54:59;248497.00;0.83;429.37;0.00;0.00;0.62;;;;;31.70;1.00;;;;;;2347726;40;2809;-87
2023/06/24 11:15:30;884037.00;2.95;1528.10;92854.00;0.31;161.24;;;;;30.50;1.00;;;;;;1831673;40;3247;-88
2023/06/24 11:20:34;707998.00;2.36;1221.11;0.00;0.00;0.62;;;;;30.10;1.00;;;;;;2304863;55;3022;-89
2023/06/24 11:23:01;528585.00;1.76;911.05;27020.00;0.09;47.42;;;;;30.20;1.00;;;;;;2272393;61;2053;-91
2023/06/24 11:27:58;572110.00;1.91;986.09;0.00;0.00;0.62;;;;;30.10;1.00;;;;;;2288356;56;3690;-88
2023/06/24 11:30:26;1047828.00;3.49;1817.37;68419.00;0.23;119.03;;;;;30.10;1.00;;;;;;2287513;40;3628;-89
2023/06/24 11:40:33;1613935.00;5.38;2859.40;98095.00;0.33;170.28;;;;;30.70;1.00;;;;;;1541178;56;3571;-89
2023/06/24 11:43:03;504510.00;1.68;869.59;16336.00;0.05;28.92;;;;;29.90;1.00;;;;;;2296681;55;3598;-88
2023/06/24 11:55:38;394370.00;1.31;680.13;0.00;0.00;0.62;;;;;30.00;1.00;;;;;;2288837;55;3739;-88
2023/06/24 11:58:09;209607.00;0.70;362.46;1976.00;0.01;4.04;;;;;29.60;1.00;;;;;;2287458;56;3737;-89
2023/06/24 12:08:09;684704.00;2.28;1180.72;10951.00;0.04;19.60;;;;;30.30;1.00;;;;;;2317984;55;3707;-89
2023/06/24 12:10:42;244618.00;0.82;422.69;0.00;0.00;0.62;;;;;30.20;1.00;;;;;;2274326;55;3738;-91